sensor_id;sensor_type;location;lat;lon;timestamp;P1;durP1;ratioP1;P2;durP2;ratioP2
74660;SDS011;63191;39.566;2.654;2023-02-20T00:01:50;9.80;;;5.10;;
74660;SDS011;63191;39.566;2.654;2023-02-20T00:04:17;10.40;;;5.50;;
74660;SDS011;63191;39.566;2.654;2023-02-20T00:06:43;9.70;;;4.90;;
74660;SDS011;63191;39.566;2.654;2023-02-20T00:09:09;10.80;;;5.20;;
74660;SDS011;63191;39.566;2.654;2023-02-20T00:11:35;9.70;;;5.40;;
74660;SDS011;63191;39.566;2.654;2023-02-20T00:14:01;10.70;;;5.50;;
74660;SDS011;63191;39.566;2.654;2023-02-20T00:16:27;10.30;;;5.00;;
74660;SDS011;63191;39.566;2.654;2023-02-20T00:18:53;9.70;;;5.20;;
74660;SDS011;63191;39.566;2.654;2023-02-20T00:21:19;11.30;;;5.40;;
74660;SDS011;63191;39.566;2.654;2023-02-20T00:23:45;11.10;;;5.90;;
74660;SDS011;63191;39.566;2.654;2023-02-20T00:26:12;12.00;;;6.30;;
74660;SDS011;63191;39.566;2.654;2023-02-20T00:28:38;11.40;;;5.90;;
74660;SDS011;63191;39.566;2.654;2023-02-20T00:31:11;10.90;;;5.20;;
74660;SDS011;63191;39.566;2.654;2023-02-20T00:33:38;10.40;;;5.20;;
74660;SDS011;63191;39.566;2.654;2023-02-20T00:36:04;9.90;;;5.10;;
74660;SDS011;63191;39.566;2.654;2023-02-20T00:38:30;11.20;;;5.30;;
74660;SDS011;63191;39.566;2.654;2023-02-20T00:40:56;8.30;;;4.60;;
74660;SDS011;63191;39.566;2.654;2023-02-20T00:43:22;8.10;;;4.10;;
74660;SDS011;63191;39.566;2.654;2023-02-20T00:45:48;9.50;;;4.20;;
74660;SDS011;63191;39.566;2.654;2023-02-20T00:48:13;9.20;;;4.20;;
74660;SDS011;63191;39.566;2.654;2023-02-20T00:50:39;9.30;;;4.00;;
74660;SDS011;63191;39.566;2.654;2023-02-20T00:53:05;7.30;;;3.40;;
74660;SDS011;63191;39.566;2.654;2023-02-20T00:55:32;7.80;;;3.60;;
74660;SDS011;63191;39.566;2.654;2023-02-20T00:57:58;7.40;;;3.50;;
74660;SDS011;63191;39.566;2.654;2023-02-20T01:00:27;8.30;;;3.60;;
74660;SDS011;63191;39.566;2.654;2023-02-20T01:02:54;8.40;;;3.60;;
74660;SDS011;63191;39.566;2.654;2023-02-20T01:05:20;7.10;;;3.00;;
74660;SDS011;63191;39.566;2.654;2023-02-20T01:07:47;7.90;;;3.20;;
74660;SDS011;63191;39.566;2.654;2023-02-20T01:10:13;6.50;;;2.80;;
74660;SDS011;63191;39.566;2.654;2023-02-20T01:12:39;6.30;;;2.40;;
74660;SDS011;63191;39.566;2.654;2023-02-20T01:15:07;6.10;;;2.50;;
74660;SDS011;63191;39.566;2.654;2023-02-20T01:17:33;6.40;;;2.50;;
74660;SDS011;63191;39.566;2.654;2023-02-20T01:19:59;6.60;;;2.40;;
74660;SDS011;63191;39.566;2.654;2023-02-20T01:22:25;6.50;;;2.10;;
74660;SDS011;63191;39.566;2.654;2023-02-20T01:24:51;5.00;;;1.80;;
74660;SDS011;63191;39.566;2.654;2023-02-20T01:27:17;5.30;;;1.90;;
74660;SDS011;63191;39.566;2.654;2023-02-20T01:29:42;5.80;;;1.90;;
74660;SDS011;63191;39.566;2.654;2023-02-20T01:32:12;5.40;;;1.80;;
74660;SDS011;63191;39.566;2.654;2023-02-20T01:34:38;5.90;;;2.20;;
74660;SDS011;63191;39.566;2.654;2023-02-20T01:37:04;5.80;;;1.90;;
74660;SDS011;63191;39.566;2.654;2023-02-20T01:39:30;6.00;;;2.00;;
74660;SDS011;63191;39.566;2.654;2023-02-20T01:42:00;5.70;;;1.70;;
74660;SDS011;63191;39.566;2.654;2023-02-20T01:44:35;4.60;;;1.60;;
74660;SDS011;63191;39.566;2.654;2023-02-20T01:47:11;7.10;;;1.80;;
74660;SDS011;63191;39.566;2.654;2023-02-20T01:49:47;7.00;;;1.80;;
74660;SDS011;63191;39.566;2.654;2023-02-20T01:52:24;6.10;;;1.60;;
74660;SDS011;63191;39.566;2.654;2023-02-20T01:55:23;5.70;;;1.70;;
74660;SDS011;63191;39.566;2.654;2023-02-20T01:58:03;5.10;;;1.60;;
74660;SDS011;63191;39.566;2.654;2023-02-20T02:00:34;4.40;;;1.60;;
74660;SDS011;63191;39.566;2.654;2023-02-20T02:03:22;5.30;;;1.70;;
74660;SDS011;63191;39.566;2.654;2023-02-20T02:05:57;6.50;;;2.20;;
74660;SDS011;63191;39.566;2.654;2023-02-20T02:08:41;5.60;;;2.00;;
74660;SDS011;63191;39.566;2.654;2023-02-20T02:11:11;5.80;;;2.30;;
74660;SDS011;63191;39.566;2.654;2023-02-20T02:13:41;5.30;;;1.70;;
74660;SDS011;63191;39.566;2.654;2023-02-20T02:37:30;5.50;;;2.00;;
74660;SDS011;63191;39.566;2.654;2023-02-20T02:46:23;5.20;;;1.50;;
74660;SDS011;63191;39.566;2.654;2023-02-20T02:51:45;5.20;;;1.50;;
74660;SDS011;63191;39.566;2.654;2023-02-20T02:54:17;5.80;;;1.80;;
74660;SDS011;63191;39.566;2.654;2023-02-20T02:56:47;5.60;;;1.80;;
74660;SDS011;63191;39.566;2.654;2023-02-20T02:59:18;6.00;;;1.80;;
74660;SDS011;63191;39.566;2.654;2023-02-20T03:01:58;5.20;;;1.60;;
74660;SDS011;63191;39.566;2.654;2023-02-20T03:04:29;4.90;;;1.60;;
74660;SDS011;63191;39.566;2.654;2023-02-20T03:07:06;4.90;;;1.70;;
74660;SDS011;63191;39.566;2.654;2023-02-20T03:09:47;5.00;;;1.80;;
74660;SDS011;63191;39.566;2.654;2023-02-20T03:12:48;5.90;;;2.10;;
74660;SDS011;63191;39.566;2.654;2023-02-20T03:15:27;4.70;;;1.60;;
74660;SDS011;63191;39.566;2.654;2023-02-20T03:18:08;5.70;;;2.00;;
74660;SDS011;63191;39.566;2.654;2023-02-20T03:20:56;6.10;;;2.00;;
74660;SDS011;63191;39.566;2.654;2023-02-20T03:23:26;6.10;;;2.10;;
74660;SDS011;63191;39.566;2.654;2023-02-20T03:26:08;7.10;;;1.90;;
74660;SDS011;63191;39.566;2.654;2023-02-20T03:32:25;6.00;;;1.70;;
74660;SDS011;63191;39.566;2.654;2023-02-20T03:39:05;5.50;;;2.00;;
74660;SDS011;63191;39.566;2.654;2023-02-20T03:41:55;6.80;;;2.20;;
74660;SDS011;63191;39.566;2.654;2023-02-20T03:44:40;5.70;;;1.90;;
74660;SDS011;63191;39.566;2.654;2023-02-20T03:47:08;8.30;;;2.20;;
74660;SDS011;63191;39.566;2.654;2023-02-20T03:49:40;7.80;;;2.10;;
74660;SDS011;63191;39.566;2.654;2023-02-20T03:52:09;6.60;;;2.20;;
74660;SDS011;63191;39.566;2.654;2023-02-20T03:54:37;6.70;;;1.90;;
74660;SDS011;63191;39.566;2.654;2023-02-20T03:57:10;6.10;;;1.80;;
74660;SDS011;63191;39.566;2.654;2023-02-20T03:59:45;4.70;;;1.70;;
74660;SDS011;63191;39.566;2.654;2023-02-20T04:02:27;5.70;;;1.90;;
74660;SDS011;63191;39.566;2.654;2023-02-20T04:04:59;6.40;;;2.10;;
74660;SDS011;63191;39.566;2.654;2023-02-20T04:07:42;5.40;;;1.80;;
74660;SDS011;63191;39.566;2.654;2023-02-20T04:10:18;5.30;;;1.40;;
74660;SDS011;63191;39.566;2.654;2023-02-20T04:12:47;3.80;;;1.10;;
74660;SDS011;63191;39.566;2.654;2023-02-20T04:15:14;5.40;;;1.20;;
74660;SDS011;63191;39.566;2.654;2023-02-20T04:17:48;4.40;;;1.20;;
74660;SDS011;63191;39.566;2.654;2023-02-20T04:20:24;5.80;;;1.70;;
74660;SDS011;63191;39.566;2.654;2023-02-20T04:22:55;5.00;;;1.40;;
74660;SDS011;63191;39.566;2.654;2023-02-20T04:28:07;5.30;;;0.90;;
74660;SDS011;63191;39.566;2.654;2023-02-20T04:30:33;3.90;;;1.00;;
74660;SDS011;63191;39.566;2.654;2023-02-20T04:32:59;4.00;;;1.10;;
74660;SDS011;63191;39.566;2.654;2023-02-20T04:35:25;3.50;;;0.90;;
74660;SDS011;63191;39.566;2.654;2023-02-20T04:37:51;3.40;;;0.80;;
74660;SDS011;63191;39.566;2.654;2023-02-20T04:40:22;4.10;;;1.20;;
74660;SDS011;63191;39.566;2.654;2023-02-20T04:42:48;4.30;;;1.10;;
74660;SDS011;63191;39.566;2.654;2023-02-20T04:45:14;4.30;;;1.10;;
74660;SDS011;63191;39.566;2.654;2023-02-20T04:47:43;4.60;;;1.00;;
74660;SDS011;63191;39.566;2.654;2023-02-20T04:50:18;4.50;;;1.00;;
74660;SDS011;63191;39.566;2.654;2023-02-20T04:52:55;4.60;;;1.30;;
74660;SDS011;63191;39.566;2.654;2023-02-20T04:55:21;4.60;;;1.10;;
74660;SDS011;63191;39.566;2.654;2023-02-20T04:57:48;4.20;;;1.20;;
74660;SDS011;63191;39.566;2.654;2023-02-20T05:00:16;4.60;;;1.10;;
74660;SDS011;63191;39.566;2.654;2023-02-20T05:02:43;3.00;;;1.00;;
74660;SDS011;63191;39.566;2.654;2023-02-20T05:05:23;5.00;;;1.30;;
74660;SDS011;63191;39.566;2.654;2023-02-20T05:08:08;6.30;;;1.40;;
74660;SDS011;63191;39.566;2.654;2023-02-20T05:10:35;4.90;;;1.40;;
74660;SDS011;63191;39.566;2.654;2023-02-20T05:13:02;5.30;;;1.50;;
74660;SDS011;63191;39.566;2.654;2023-02-20T05:15:29;4.70;;;1.30;;
74660;SDS011;63191;39.566;2.654;2023-02-20T05:17:56;3.80;;;1.20;;
74660;SDS011;63191;39.566;2.654;2023-02-20T05:20:22;3.60;;;1.20;;
74660;SDS011;63191;39.566;2.654;2023-02-20T05:23:10;5.30;;;1.50;;
74660;SDS011;63191;39.566;2.654;2023-02-20T05:25:38;4.60;;;1.50;;
74660;SDS011;63191;39.566;2.654;2023-02-20T05:28:04;5.00;;;1.40;;
74660;SDS011;63191;39.566;2.654;2023-02-20T05:30:30;4.30;;;1.40;;
74660;SDS011;63191;39.566;2.654;2023-02-20T05:32:56;4.50;;;1.40;;
74660;SDS011;63191;39.566;2.654;2023-02-20T05:35:22;4.40;;;1.30;;
74660;SDS011;63191;39.566;2.654;2023-02-20T05:37:48;4.50;;;1.40;;
74660;SDS011;63191;39.566;2.654;2023-02-20T05:40:14;4.90;;;1.60;;
74660;SDS011;63191;39.566;2.654;2023-02-20T05:42:40;4.50;;;1.30;;
74660;SDS011;63191;39.566;2.654;2023-02-20T05:45:06;4.70;;;1.50;;
74660;SDS011;63191;39.566;2.654;2023-02-20T05:47:36;4.50;;;1.20;;
74660;SDS011;63191;39.566;2.654;2023-02-20T05:50:04;4.20;;;1.20;;
74660;SDS011;63191;39.566;2.654;2023-02-20T05:52:31;4.70;;;1.40;;
74660;SDS011;63191;39.566;2.654;2023-02-20T05:54:58;3.90;;;1.50;;
74660;SDS011;63191;39.566;2.654;2023-02-20T05:57:26;4.40;;;1.20;;
74660;SDS011;63191;39.566;2.654;2023-02-20T05:59:53;4.60;;;1.30;;
74660;SDS011;63191;39.566;2.654;2023-02-20T06:02:18;4.70;;;1.30;;
74660;SDS011;63191;39.566;2.654;2023-02-20T06:04:45;4.00;;;1.00;;
74660;SDS011;63191;39.566;2.654;2023-02-20T06:07:11;4.10;;;1.20;;
74660;SDS011;63191;39.566;2.654;2023-02-20T06:09:42;4.40;;;1.30;;
74660;SDS011;63191;39.566;2.654;2023-02-20T06:12:09;5.20;;;1.40;;
74660;SDS011;63191;39.566;2.654;2023-02-20T06:14:35;5.10;;;1.40;;
74660;SDS011;63191;39.566;2.654;2023-02-20T06:17:01;6.60;;;1.70;;
74660;SDS011;63191;39.566;2.654;2023-02-20T06:19:27;5.50;;;1.60;;
74660;SDS011;63191;39.566;2.654;2023-02-20T06:21:54;4.60;;;1.60;;
74660;SDS011;63191;39.566;2.654;2023-02-20T06:24:22;6.40;;;1.60;;
74660;SDS011;63191;39.566;2.654;2023-02-20T06:26:49;6.50;;;1.60;;
74660;SDS011;63191;39.566;2.654;2023-02-20T06:29:15;6.00;;;1.70;;
74660;SDS011;63191;39.566;2.654;2023-02-20T06:31:41;5.50;;;1.70;;
74660;SDS011;63191;39.566;2.654;2023-02-20T06:34:09;5.70;;;1.60;;
74660;SDS011;63191;39.566;2.654;2023-02-20T06:36:38;7.00;;;1.60;;
74660;SDS011;63191;39.566;2.654;2023-02-20T06:39:07;4.90;;;1.50;;
74660;SDS011;63191;39.566;2.654;2023-02-20T06:41:35;7.00;;;2.00;;
74660;SDS011;63191;39.566;2.654;2023-02-20T06:44:02;8.10;;;1.80;;
74660;SDS011;63191;39.566;2.654;2023-02-20T06:46:28;7.40;;;2.10;;
74660;SDS011;63191;39.566;2.654;2023-02-20T06:48:56;6.20;;;1.90;;
74660;SDS011;63191;39.566;2.654;2023-02-20T06:51:29;6.10;;;2.00;;
74660;SDS011;63191;39.566;2.654;2023-02-20T06:53:56;8.50;;;2.40;;
74660;SDS011;63191;39.566;2.654;2023-02-20T06:56:25;6.30;;;2.20;;
74660;SDS011;63191;39.566;2.654;2023-02-20T06:58:53;7.80;;;2.10;;
74660;SDS011;63191;39.566;2.654;2023-02-20T07:01:22;6.60;;;2.30;;
74660;SDS011;63191;39.566;2.654;2023-02-20T07:03:53;8.30;;;2.20;;
74660;SDS011;63191;39.566;2.654;2023-02-20T07:06:21;6.00;;;1.90;;
74660;SDS011;63191;39.566;2.654;2023-02-20T07:08:57;6.80;;;2.20;;
74660;SDS011;63191;39.566;2.654;2023-02-20T07:11:24;7.20;;;2.50;;
74660;SDS011;63191;39.566;2.654;2023-02-20T07:13:51;5.80;;;2.00;;
74660;SDS011;63191;39.566;2.654;2023-02-20T07:16:37;5.60;;;2.00;;
74660;SDS011;63191;39.566;2.654;2023-02-20T07:19:04;6.30;;;1.90;;
74660;SDS011;63191;39.566;2.654;2023-02-20T07:21:31;8.60;;;2.00;;
74660;SDS011;63191;39.566;2.654;2023-02-20T07:23:58;7.20;;;1.90;;
74660;SDS011;63191;39.566;2.654;2023-02-20T07:26:26;6.50;;;2.10;;
74660;SDS011;63191;39.566;2.654;2023-02-20T07:28:54;7.00;;;2.30;;
74660;SDS011;63191;39.566;2.654;2023-02-20T07:31:23;8.00;;;2.40;;
74660;SDS011;63191;39.566;2.654;2023-02-20T07:33:50;9.00;;;2.70;;
74660;SDS011;63191;39.566;2.654;2023-02-20T07:36:18;8.10;;;2.90;;
74660;SDS011;63191;39.566;2.654;2023-02-20T07:38:55;8.90;;;2.90;;
74660;SDS011;63191;39.566;2.654;2023-02-20T07:41:26;7.70;;;2.80;;
74660;SDS011;63191;39.566;2.654;2023-02-20T07:43:56;7.80;;;3.00;;
74660;SDS011;63191;39.566;2.654;2023-02-20T07:46:22;8.00;;;2.90;;
74660;SDS011;63191;39.566;2.654;2023-02-20T07:48:49;8.80;;;2.70;;
74660;SDS011;63191;39.566;2.654;2023-02-20T07:51:15;8.00;;;3.20;;
74660;SDS011;63191;39.566;2.654;2023-02-20T07:53:51;9.90;;;3.40;;
74660;SDS011;63191;39.566;2.654;2023-02-20T07:56:20;9.60;;;3.90;;
74660;SDS011;63191;39.566;2.654;2023-02-20T07:58:47;10.40;;;4.60;;
74660;SDS011;63191;39.566;2.654;2023-02-20T08:01:15;10.70;;;5.00;;
74660;SDS011;63191;39.566;2.654;2023-02-20T08:03:49;10.30;;;4.70;;
74660;SDS011;63191;39.566;2.654;2023-02-20T08:06:18;14.00;;;4.50;;
74660;SDS011;63191;39.566;2.654;2023-02-20T08:08:49;14.80;;;5.70;;
74660;SDS011;63191;39.566;2.654;2023-02-20T08:11:17;13.80;;;4.80;;
74660;SDS011;63191;39.566;2.654;2023-02-20T08:13:43;11.30;;;4.60;;
74660;SDS011;63191;39.566;2.654;2023-02-20T08:16:10;9.20;;;4.40;;
74660;SDS011;63191;39.566;2.654;2023-02-20T08:18:36;7.90;;;4.90;;
74660;SDS011;63191;39.566;2.654;2023-02-20T08:21:02;8.70;;;4.60;;
74660;SDS011;63191;39.566;2.654;2023-02-20T08:23:28;12.70;;;4.60;;
74660;SDS011;63191;39.566;2.654;2023-02-20T08:25:54;9.60;;;5.00;;
74660;SDS011;63191;39.566;2.654;2023-02-20T08:28:21;10.50;;;5.00;;
74660;SDS011;63191;39.566;2.654;2023-02-20T08:30:47;10.40;;;5.90;;
74660;SDS011;63191;39.566;2.654;2023-02-20T08:33:13;8.60;;;5.30;;
74660;SDS011;63191;39.566;2.654;2023-02-20T08:35:42;13.50;;;6.10;;
74660;SDS011;63191;39.566;2.654;2023-02-20T08:40:57;11.30;;;5.90;;
74660;SDS011;63191;39.566;2.654;2023-02-20T08:43:23;11.10;;;5.80;;
74660;SDS011;63191;39.566;2.654;2023-02-20T08:45:50;10.90;;;6.80;;
74660;SDS011;63191;39.566;2.654;2023-02-20T08:48:16;12.60;;;7.40;;
74660;SDS011;63191;39.566;2.654;2023-02-20T08:50:42;14.70;;;8.30;;
74660;SDS011;63191;39.566;2.654;2023-02-20T08:53:08;14.20;;;8.10;;
74660;SDS011;63191;39.566;2.654;2023-02-20T08:55:33;15.20;;;8.70;;
74660;SDS011;63191;39.566;2.654;2023-02-20T08:57:59;14.30;;;8.10;;
74660;SDS011;63191;39.566;2.654;2023-02-20T09:00:27;15.30;;;8.50;;
74660;SDS011;63191;39.566;2.654;2023-02-20T09:02:53;16.40;;;8.00;;
74660;SDS011;63191;39.566;2.654;2023-02-20T09:05:19;19.10;;;8.40;;
74660;SDS011;63191;39.566;2.654;2023-02-20T09:07:45;18.90;;;10.60;;
74660;SDS011;63191;39.566;2.654;2023-02-20T09:10:11;15.10;;;7.70;;
74660;SDS011;63191;39.566;2.654;2023-02-20T09:12:37;19.90;;;11.80;;
74660;SDS011;63191;39.566;2.654;2023-02-20T09:15:08;16.10;;;8.80;;
74660;SDS011;63191;39.566;2.654;2023-02-20T09:17:38;15.90;;;8.00;;
74660;SDS011;63191;39.566;2.654;2023-02-20T09:20:04;17.90;;;10.60;;
74660;SDS011;63191;39.566;2.654;2023-02-20T09:22:34;12.40;;;7.80;;
74660;SDS011;63191;39.566;2.654;2023-02-20T09:25:01;13.90;;;7.40;;
74660;SDS011;63191;39.566;2.654;2023-02-20T09:27:30;10.70;;;5.60;;
74660;SDS011;63191;39.566;2.654;2023-02-20T09:29:56;11.70;;;5.20;;
74660;SDS011;63191;39.566;2.654;2023-02-20T09:32:23;10.40;;;5.20;;
74660;SDS011;63191;39.566;2.654;2023-02-20T09:34:49;13.10;;;5.70;;
74660;SDS011;63191;39.566;2.654;2023-02-20T09:37:15;10.80;;;5.90;;
74660;SDS011;63191;39.566;2.654;2023-02-20T09:39:42;14.80;;;5.30;;
74660;SDS011;63191;39.566;2.654;2023-02-20T09:42:30;12.30;;;5.20;;
74660;SDS011;63191;39.566;2.654;2023-02-20T09:50:38;11.60;;;5.40;;
74660;SDS011;63191;39.566;2.654;2023-02-20T09:53:36;10.10;;;4.10;;
74660;SDS011;63191;39.566;2.654;2023-02-20T09:56:05;11.70;;;4.70;;
74660;SDS011;63191;39.566;2.654;2023-02-20T09:58:42;11.70;;;4.40;;
74660;SDS011;63191;39.566;2.654;2023-02-20T10:01:13;9.70;;;5.10;;
74660;SDS011;63191;39.566;2.654;2023-02-20T10:04:01;10.20;;;5.90;;
74660;SDS011;63191;39.566;2.654;2023-02-20T10:06:32;10.70;;;6.30;;
74660;SDS011;63191;39.566;2.654;2023-02-20T10:08:59;10.10;;;6.40;;
74660;SDS011;63191;39.566;2.654;2023-02-20T10:12:15;10.10;;;6.30;;
74660;SDS011;63191;39.566;2.654;2023-02-20T10:17:25;14.20;;;7.60;;
74660;SDS011;63191;39.566;2.654;2023-02-20T10:22:55;11.50;;;8.70;;
74660;SDS011;63191;39.566;2.654;2023-02-20T10:25:26;11.40;;;10.20;;
74660;SDS011;63191;39.566;2.654;2023-02-20T10:28:10;12.70;;;11.50;;
74660;SDS011;63191;39.566;2.654;2023-02-20T10:33:44;17.10;;;15.40;;
74660;SDS011;63191;39.566;2.654;2023-02-20T10:36:24;14.70;;;13.30;;
74660;SDS011;63191;39.566;2.654;2023-02-20T10:39:21;16.10;;;14.60;;
74660;SDS011;63191;39.566;2.654;2023-02-20T10:42:07;16.20;;;14.80;;
74660;SDS011;63191;39.566;2.654;2023-02-20T10:44:46;19.00;;;17.60;;
74660;SDS011;63191;39.566;2.654;2023-02-20T10:47:31;21.10;;;19.30;;
74660;SDS011;63191;39.566;2.654;2023-02-20T10:50:08;25.40;;;23.40;;
74660;SDS011;63191;39.566;2.654;2023-02-20T10:52:49;22.80;;;20.90;;
74660;SDS011;63191;39.566;2.654;2023-02-20T10:55:42;23.70;;;21.90;;
74660;SDS011;63191;39.566;2.654;2023-02-20T10:58:20;23.30;;;21.40;;
74660;SDS011;63191;39.566;2.654;2023-02-20T11:00:58;23.80;;;22.00;;
74660;SDS011;63191;39.566;2.654;2023-02-20T11:03:37;20.50;;;19.00;;
74660;SDS011;63191;39.566;2.654;2023-02-20T11:06:15;18.30;;;17.00;;
74660;SDS011;63191;39.566;2.654;2023-02-20T11:08:44;17.80;;;16.50;;
74660;SDS011;63191;39.566;2.654;2023-02-20T11:11:37;16.50;;;15.40;;
74660;SDS011;63191;39.566;2.654;2023-02-20T11:14:15;14.80;;;13.60;;
74660;SDS011;63191;39.566;2.654;2023-02-20T11:16:51;15.10;;;13.80;;
74660;SDS011;63191;39.566;2.654;2023-02-20T11:22:04;15.20;;;13.70;;
74660;SDS011;63191;39.566;2.654;2023-02-20T11:24:32;16.20;;;14.80;;
74660;SDS011;63191;39.566;2.654;2023-02-20T11:29:39;14.20;;;13.20;;
74660;SDS011;63191;39.566;2.654;2023-02-20T11:32:38;15.00;;;13.80;;
74660;SDS011;63191;39.566;2.654;2023-02-20T11:37:43;14.80;;;13.70;;
74660;SDS011;63191;39.566;2.654;2023-02-20T11:40:27;13.80;;;12.80;;
74660;SDS011;63191;39.566;2.654;2023-02-20T11:42:55;14.70;;;13.60;;
74660;SDS011;63191;39.566;2.654;2023-02-20T11:45:42;13.90;;;12.90;;
74660;SDS011;63191;39.566;2.654;2023-02-20T11:48:16;14.60;;;13.30;;
74660;SDS011;63191;39.566;2.654;2023-02-20T11:50:51;14.90;;;13.80;;
74660;SDS011;63191;39.566;2.654;2023-02-20T11:53:21;15.50;;;14.40;;
74660;SDS011;63191;39.566;2.654;2023-02-20T11:55:49;15.10;;;14.00;;
74660;SDS011;63191;39.566;2.654;2023-02-20T11:58:32;15.80;;;14.50;;
74660;SDS011;63191;39.566;2.654;2023-02-20T12:00:58;15.20;;;14.10;;
74660;SDS011;63191;39.566;2.654;2023-02-20T12:03:27;14.30;;;13.30;;
74660;SDS011;63191;39.566;2.654;2023-02-20T12:05:55;13.10;;;12.20;;
74660;SDS011;63191;39.566;2.654;2023-02-20T12:08:43;14.20;;;13.10;;
74660;SDS011;63191;39.566;2.654;2023-02-20T12:11:19;11.80;;;10.90;;
74660;SDS011;63191;39.566;2.654;2023-02-20T12:13:51;11.10;;;10.30;;
74660;SDS011;63191;39.566;2.654;2023-02-20T12:19:39;9.60;;;8.80;;
74660;SDS011;63191;39.566;2.654;2023-02-20T12:22:32;8.80;;;7.90;;
74660;SDS011;63191;39.566;2.654;2023-02-20T12:25:23;7.70;;;6.90;;
74660;SDS011;63191;39.566;2.654;2023-02-20T12:28:12;8.00;;;6.80;;
74660;SDS011;63191;39.566;2.654;2023-02-20T12:36:39;6.00;;;5.40;;
74660;SDS011;63191;39.566;2.654;2023-02-20T12:45:35;7.10;;;6.20;;
74660;SDS011;63191;39.566;2.654;2023-02-20T12:53:45;6.10;;;5.50;;
74660;SDS011;63191;39.566;2.654;2023-02-20T12:56:35;6.20;;;5.50;;
74660;SDS011;63191;39.566;2.654;2023-02-20T12:59:56;5.30;;;4.70;;
74660;SDS011;63191;39.566;2.654;2023-02-20T13:02:37;7.60;;;5.30;;
74660;SDS011;63191;39.566;2.654;2023-02-20T13:05:09;6.10;;;4.80;;
74660;SDS011;63191;39.566;2.654;2023-02-20T13:07:59;5.90;;;4.90;;
74660;SDS011;63191;39.566;2.654;2023-02-20T13:10:29;6.40;;;5.10;;
74660;SDS011;63191;39.566;2.654;2023-02-20T13:12:58;5.40;;;4.50;;
74660;SDS011;63191;39.566;2.654;2023-02-20T13:21:04;6.60;;;4.50;;
74660;SDS011;63191;39.566;2.654;2023-02-20T13:23:36;5.50;;;3.70;;
74660;SDS011;63191;39.566;2.654;2023-02-20T13:29:14;5.50;;;3.50;;
74660;SDS011;63191;39.566;2.654;2023-02-20T13:31:56;6.10;;;3.80;;
74660;SDS011;63191;39.566;2.654;2023-02-20T13:34:28;5.00;;;3.30;;
74660;SDS011;63191;39.566;2.654;2023-02-20T13:36:59;5.80;;;3.60;;
74660;SDS011;63191;39.566;2.654;2023-02-20T13:42:08;5.90;;;3.40;;
74660;SDS011;63191;39.566;2.654;2023-02-20T13:44:53;5.50;;;3.10;;
74660;SDS011;63191;39.566;2.654;2023-02-20T13:47:30;5.20;;;3.10;;
74660;SDS011;63191;39.566;2.654;2023-02-20T13:49:59;4.70;;;2.50;;
74660;SDS011;63191;39.566;2.654;2023-02-20T13:57:49;6.50;;;3.30;;
74660;SDS011;63191;39.566;2.654;2023-02-20T14:03:27;5.90;;;2.90;;
74660;SDS011;63191;39.566;2.654;2023-02-20T14:06:17;5.90;;;2.50;;
74660;SDS011;63191;39.566;2.654;2023-02-20T14:08:47;4.50;;;2.20;;
74660;SDS011;63191;39.566;2.654;2023-02-20T14:11:15;6.10;;;2.30;;
74660;SDS011;63191;39.566;2.654;2023-02-20T14:13:43;4.20;;;2.20;;
74660;SDS011;63191;39.566;2.654;2023-02-20T14:16:30;4.90;;;2.20;;
74660;SDS011;63191;39.566;2.654;2023-02-20T14:19:42;5.10;;;2.30;;
74660;SDS011;63191;39.566;2.654;2023-02-20T14:21:50;5.10;;;2.20;;
74660;SDS011;63191;39.566;2.654;2023-02-20T14:26:48;5.30;;;2.30;;
74660;SDS011;63191;39.566;2.654;2023-02-20T14:29:27;5.60;;;2.00;;
74660;SDS011;63191;39.566;2.654;2023-02-20T14:32:02;5.80;;;2.70;;
74660;SDS011;63191;39.566;2.654;2023-02-20T14:34:54;6.00;;;2.70;;
74660;SDS011;63191;39.566;2.654;2023-02-20T14:40:34;5.60;;;2.50;;
74660;SDS011;63191;39.566;2.654;2023-02-20T14:43:04;4.80;;;1.90;;
74660;SDS011;63191;39.566;2.654;2023-02-20T14:46:23;8.40;;;4.00;;
74660;SDS011;63191;39.566;2.654;2023-02-20T14:49:06;5.80;;;2.40;;
74660;SDS011;63191;39.566;2.654;2023-02-20T14:51:41;4.60;;;1.80;;
74660;SDS011;63191;39.566;2.654;2023-02-20T14:54:21;6.50;;;2.30;;
74660;SDS011;63191;39.566;2.654;2023-02-20T14:56:51;6.30;;;2.50;;
74660;SDS011;63191;39.566;2.654;2023-02-20T15:02:20;6.20;;;2.80;;
74660;SDS011;63191;39.566;2.654;2023-02-20T15:05:04;5.40;;;2.00;;
74660;SDS011;63191;39.566;2.654;2023-02-20T15:07:36;6.40;;;2.60;;
74660;SDS011;63191;39.566;2.654;2023-02-20T15:10:06;5.30;;;1.80;;
74660;SDS011;63191;39.566;2.654;2023-02-20T15:13:24;5.70;;;1.80;;
74660;SDS011;63191;39.566;2.654;2023-02-20T15:16:34;6.80;;;2.40;;
74660;SDS011;63191;39.566;2.654;2023-02-20T15:22:46;7.70;;;3.50;;
74660;SDS011;63191;39.566;2.654;2023-02-20T15:32:21;6.10;;;1.80;;
74660;SDS011;63191;39.566;2.654;2023-02-20T15:34:55;5.80;;;1.90;;
74660;SDS011;63191;39.566;2.654;2023-02-20T15:37:33;8.60;;;3.00;;
74660;SDS011;63191;39.566;2.654;2023-02-20T15:40:27;3.90;;;1.50;;
74660;SDS011;63191;39.566;2.654;2023-02-20T15:42:54;5.40;;;2.10;;
74660;SDS011;63191;39.566;2.654;2023-02-20T15:45:29;5.70;;;2.00;;
74660;SDS011;63191;39.566;2.654;2023-02-20T15:48:02;4.90;;;2.00;;
74660;SDS011;63191;39.566;2.654;2023-02-20T15:50:29;5.20;;;2.00;;
74660;SDS011;63191;39.566;2.654;2023-02-20T15:52:55;7.20;;;2.10;;
74660;SDS011;63191;39.566;2.654;2023-02-20T15:55:23;4.90;;;1.50;;
74660;SDS011;63191;39.566;2.654;2023-02-20T15:57:54;5.80;;;1.90;;
74660;SDS011;63191;39.566;2.654;2023-02-20T16:00:29;6.60;;;2.50;;
74660;SDS011;63191;39.566;2.654;2023-02-20T16:02:58;5.50;;;2.20;;
74660;SDS011;63191;39.566;2.654;2023-02-20T16:05:26;7.00;;;2.80;;
74660;SDS011;63191;39.566;2.654;2023-02-20T16:07:52;4.90;;;2.00;;
74660;SDS011;63191;39.566;2.654;2023-02-20T16:10:20;5.00;;;2.30;;
74660;SDS011;63191;39.566;2.654;2023-02-20T16:12:52;5.50;;;1.90;;
74660;SDS011;63191;39.566;2.654;2023-02-20T16:15:20;5.50;;;2.00;;
74660;SDS011;63191;39.566;2.654;2023-02-20T16:17:47;6.20;;;2.30;;
74660;SDS011;63191;39.566;2.654;2023-02-20T16:20:19;5.80;;;1.80;;
74660;SDS011;63191;39.566;2.654;2023-02-20T16:22:48;5.80;;;1.60;;
74660;SDS011;63191;39.566;2.654;2023-02-20T16:25:17;4.70;;;1.60;;
74660;SDS011;63191;39.566;2.654;2023-02-20T16:27:44;5.60;;;1.70;;
74660;SDS011;63191;39.566;2.654;2023-02-20T16:30:24;4.20;;;1.70;;
74660;SDS011;63191;39.566;2.654;2023-02-20T16:32:55;5.20;;;1.50;;
74660;SDS011;63191;39.566;2.654;2023-02-20T16:35:21;5.40;;;2.00;;
74660;SDS011;63191;39.566;2.654;2023-02-20T16:37:47;6.20;;;1.80;;
74660;SDS011;63191;39.566;2.654;2023-02-20T16:40:13;7.10;;;3.00;;
74660;SDS011;63191;39.566;2.654;2023-02-20T16:42:40;6.60;;;2.30;;
74660;SDS011;63191;39.566;2.654;2023-02-20T16:45:13;6.40;;;1.80;;
74660;SDS011;63191;39.566;2.654;2023-02-20T16:47:41;5.00;;;1.50;;
74660;SDS011;63191;39.566;2.654;2023-02-20T16:50:16;5.30;;;1.80;;
74660;SDS011;63191;39.566;2.654;2023-02-20T16:52:45;6.00;;;1.90;;
74660;SDS011;63191;39.566;2.654;2023-02-20T16:55:21;5.40;;;1.60;;
74660;SDS011;63191;39.566;2.654;2023-02-20T16:57:49;4.60;;;1.70;;
74660;SDS011;63191;39.566;2.654;2023-02-20T17:00:21;4.90;;;1.80;;
74660;SDS011;63191;39.566;2.654;2023-02-20T17:02:52;5.30;;;1.90;;
74660;SDS011;63191;39.566;2.654;2023-02-20T17:05:21;4.30;;;1.40;;
74660;SDS011;63191;39.566;2.654;2023-02-20T17:07:54;8.40;;;2.10;;
74660;SDS011;63191;39.566;2.654;2023-02-20T17:10:21;6.50;;;2.00;;
74660;SDS011;63191;39.566;2.654;2023-02-20T17:12:47;6.90;;;2.40;;
74660;SDS011;63191;39.566;2.654;2023-02-20T17:15:15;7.10;;;2.40;;
74660;SDS011;63191;39.566;2.654;2023-02-20T17:17:43;5.80;;;2.00;;
74660;SDS011;63191;39.566;2.654;2023-02-20T17:20:17;6.10;;;2.40;;